createdAt,value
2018-07-16T00:00:45.774Z,21.35
2018-07-16T00:03:15.559Z,21.43
2018-07-16T00:05:45.237Z,21.41
2018-07-16T00:08:15.255Z,21.31
2018-07-16T00:10:45.212Z,21.09
2018-07-16T00:13:14.929Z,21.19
2018-07-16T00:15:44.599Z,21.13
2018-07-16T00:18:14.086Z,21.24
2018-07-16T00:20:43.619Z,21.11
2018-07-16T00:23:13.162Z,20.98
2018-07-16T00:25:42.766Z,21.00
2018-07-16T00:28:12.666Z,20.96
2018-07-16T00:30:42.330Z,20.91
2018-07-16T00:33:12.094Z,20.87
2018-07-16T00:35:41.858Z,20.92
2018-07-16T00:38:11.380Z,20.90
2018-07-16T00:40:41.378Z,20.71
2018-07-16T00:43:11.103Z,20.63
2018-07-16T00:45:41.017Z,20.62
2018-07-16T00:48:10.940Z,20.68
2018-07-16T00:50:40.581Z,20.83
2018-07-16T00:53:10.361Z,20.83
2018-07-16T00:55:40.168Z,20.74
2018-07-16T00:58:09.881Z,20.66
2018-07-16T01:00:39.619Z,20.70
2018-07-16T01:03:09.516Z,20.57
2018-07-16T01:05:39.400Z,20.59
2018-07-16T01:08:09.221Z,20.40
2018-07-16T01:10:38.779Z,20.39
2018-07-16T01:13:08.623Z,20.51
2018-07-16T01:15:38.476Z,20.47
2018-07-16T01:18:08.254Z,20.34
2018-07-16T01:20:37.831Z,20.30
2018-07-16T01:23:07.497Z,20.20
2018-07-16T01:25:37.467Z,20.14
2018-07-16T01:28:07.413Z,20.01
2018-07-16T01:30:37.089Z,19.96
2018-07-16T01:33:06.968Z,19.90
2018-07-16T01:35:36.704Z,19.80
2018-07-16T01:38:06.342Z,19.85
2018-07-16T01:40:36.062Z,19.82
2018-07-16T01:43:05.982Z,19.83
2018-07-16T01:45:35.618Z,19.78
2018-07-16T01:48:05.459Z,19.82
2018-07-16T01:50:35.010Z,19.79
2018-07-16T01:53:04.697Z,19.78
2018-07-16T01:55:34.353Z,19.83
2018-07-16T01:58:04.242Z,19.82
2018-07-16T02:00:35.462Z,19.89
2018-07-16T02:03:05.114Z,19.77
2018-07-16T02:05:34.846Z,19.61
2018-07-16T02:08:04.602Z,19.61
2018-07-16T02:10:34.370Z,19.53
2018-07-16T02:13:04.060Z,19.50
2018-07-16T02:15:33.923Z,19.68
2018-07-16T02:18:03.623Z,19.67
2018-07-16T02:20:33.178Z,19.63
2018-07-16T02:23:03.188Z,19.50
2018-07-16T02:25:32.960Z,19.46
2018-07-16T02:28:02.679Z,19.40
2018-07-16T02:30:32.532Z,19.29
2018-07-16T02:33:02.206Z,19.51
2018-07-16T02:35:31.873Z,19.43
2018-07-16T02:38:01.683Z,19.39
2018-07-16T02:40:31.341Z,19.37
2018-07-16T02:43:01.209Z,19.21
2018-07-16T02:45:30.767Z,19.28
2018-07-16T02:48:00.566Z,19.31
2018-07-16T02:50:30.199Z,19.23
2018-07-16T02:52:59.842Z,19.13
2018-07-16T02:55:29.698Z,19.00
2018-07-16T02:57:59.446Z,18.98
2018-07-16T03:00:29.167Z,18.96
2018-07-16T03:02:59.156Z,18.95
2018-07-16T03:05:28.931Z,18.87
2018-07-16T03:07:58.567Z,18.88
2018-07-16T03:10:28.342Z,18.88
2018-07-16T03:12:58.207Z,18.79
2018-07-16T03:15:27.754Z,18.85
2018-07-16T03:17:57.497Z,18.89
2018-07-16T03:20:26.884Z,18.78
2018-07-16T03:22:56.775Z,18.80
2018-07-16T03:25:26.381Z,18.93
2018-07-16T03:27:56.123Z,18.92
2018-07-16T03:30:26.078Z,19.03
2018-07-16T03:32:55.885Z,19.07
2018-07-16T03:35:25.699Z,18.97
2018-07-16T03:37:55.436Z,18.94
2018-07-16T03:40:25.120Z,19.01
2018-07-16T03:42:54.879Z,19.08
2018-07-16T03:45:24.674Z,19.08
2018-07-16T03:47:54.416Z,19.22
2018-07-16T03:50:24.003Z,19.21
2018-07-16T03:52:53.802Z,19.22
2018-07-16T03:55:23.796Z,19.29
2018-07-16T03:57:53.735Z,19.30
2018-07-16T04:00:23.537Z,19.32
2018-07-16T04:02:53.208Z,19.39
2018-07-16T04:05:22.938Z,19.52
2018-07-16T04:07:52.671Z,19.58
2018-07-16T04:10:22.657Z,19.60
2018-07-16T04:12:52.602Z,19.71
2018-07-16T04:15:22.109Z,19.72
2018-07-16T04:17:51.659Z,19.91
2018-07-16T04:20:21.308Z,19.88
2018-07-16T04:22:50.982Z,19.92
2018-07-16T04:25:20.958Z,20.11
2018-07-16T04:27:50.746Z,20.10
2018-07-16T04:30:20.238Z,20.18
2018-07-16T04:32:49.909Z,20.23
2018-07-16T04:35:19.718Z,20.27
2018-07-16T04:37:50.071Z,20.29
2018-07-16T04:40:20.210Z,20.41
2018-07-16T04:42:50.281Z,20.37
2018-07-16T04:45:19.980Z,20.53
2018-07-16T04:47:49.587Z,20.60
2018-07-16T04:50:19.130Z,20.62
2018-07-16T04:52:48.991Z,20.55
2018-07-16T04:55:18.757Z,20.65
2018-07-16T04:57:48.797Z,20.92
2018-07-16T05:00:18.686Z,20.72
2018-07-16T05:02:48.476Z,20.60
2018-07-16T05:05:18.108Z,20.78
2018-07-16T05:07:48.032Z,20.82
2018-07-16T05:10:17.831Z,20.73
2018-07-16T05:12:47.602Z,20.78
2018-07-16T05:15:17.295Z,20.84
2018-07-16T05:17:46.791Z,20.87
2018-07-16T05:20:16.456Z,21.10
2018-07-16T05:22:46.195Z,21.36
2018-07-16T05:25:16.162Z,21.14
2018-07-16T05:27:45.900Z,21.23
2018-07-16T05:30:15.666Z,21.16
2018-07-16T05:32:45.674Z,21.11
2018-07-16T05:35:15.426Z,21.18
2018-07-16T05:37:45.414Z,21.42
2018-07-16T05:40:15.242Z,21.38
2018-07-16T05:42:44.897Z,21.28
2018-07-16T05:45:14.647Z,21.48
2018-07-16T05:47:44.234Z,21.56
2018-07-16T05:50:13.927Z,21.50
2018-07-16T05:52:43.670Z,21.76
2018-07-16T05:55:13.421Z,21.79
2018-07-16T05:57:43.240Z,21.61
2018-07-16T06:00:13.054Z,21.68
2018-07-16T06:02:42.751Z,21.57
2018-07-16T06:05:12.541Z,21.69
2018-07-16T06:07:42.113Z,21.69
2018-07-16T06:10:11.749Z,21.89
2018-07-16T06:12:41.437Z,22.11
2018-07-16T06:15:11.305Z,22.27
2018-07-16T06:17:41.375Z,22.25
2018-07-16T06:20:12.409Z,21.91
2018-07-16T06:22:42.448Z,22.22
2018-07-16T06:25:12.004Z,22.15
2018-07-16T06:27:41.602Z,22.38
2018-07-16T06:30:11.316Z,22.46
2018-07-16T06:32:41.268Z,22.48
2018-07-16T06:35:11.315Z,22.56
2018-07-16T06:37:41.175Z,22.56
2018-07-16T06:40:11.076Z,22.58
2018-07-16T06:42:40.731Z,22.80
2018-07-16T06:45:10.657Z,22.69
2018-07-16T06:47:40.509Z,22.69
2018-07-16T06:50:10.273Z,22.87
2018-07-16T06:52:40.159Z,23.17
2018-07-16T06:55:10.147Z,22.86
2018-07-16T06:57:39.594Z,22.69
2018-07-16T07:00:09.162Z,22.79
2018-07-16T07:02:38.798Z,22.84
2018-07-16T07:05:08.581Z,22.83
2018-07-16T07:07:38.310Z,23.10
2018-07-16T07:10:08.461Z,23.18
2018-07-16T07:12:38.395Z,23.29
2018-07-16T07:15:08.141Z,23.33
2018-07-16T07:17:38.177Z,23.19
2018-07-16T07:20:09.039Z,23.20
2018-07-16T07:22:39.296Z,23.54
2018-07-16T07:25:10.053Z,23.33
2018-07-16T07:27:40.080Z,23.53
2018-07-16T07:30:10.593Z,23.68
2018-07-16T07:32:40.129Z,23.74
2018-07-16T07:35:09.746Z,23.37
2018-07-16T07:37:39.421Z,23.54
2018-07-16T07:40:09.475Z,23.95
2018-07-16T07:42:39.941Z,23.96
2018-07-16T07:45:09.755Z,24.20
2018-07-16T07:47:39.564Z,24.12
2018-07-16T07:50:10.065Z,23.80
2018-07-16T07:52:40.006Z,24.13
2018-07-16T07:55:10.063Z,24.24
2018-07-16T07:57:39.431Z,24.55
2018-07-16T08:00:09.550Z,24.13
2018-07-16T08:02:39.461Z,24.07
2018-07-16T08:05:09.146Z,24.18
2018-07-16T08:07:38.735Z,24.38
2018-07-16T08:10:08.351Z,24.39
2018-07-16T08:12:37.968Z,24.36
2018-07-16T08:15:08.786Z,24.64
2018-07-16T08:17:39.490Z,24.73
2018-07-16T08:20:10.527Z,24.71
2018-07-16T08:22:40.800Z,24.80
2018-07-16T08:25:10.289Z,24.53
2018-07-16T08:27:40.935Z,24.90
2018-07-16T08:30:11.390Z,24.50
2018-07-16T08:32:42.062Z,24.52
2018-07-16T08:35:11.770Z,24.69
2018-07-16T08:37:41.841Z,24.60
2018-07-16T08:40:11.469Z,24.79
2018-07-16T08:42:41.074Z,24.77
2018-07-16T08:45:10.782Z,23.13
2018-07-16T08:47:41.431Z,25.24
2018-07-16T08:50:11.544Z,25.16
2018-07-16T08:52:41.615Z,25.08
2018-07-16T08:55:12.543Z,24.99
2018-07-16T08:57:42.105Z,25.37
2018-07-16T09:00:11.869Z,25.28
2018-07-16T09:02:41.743Z,25.33
2018-07-16T09:05:11.301Z,25.22
2018-07-16T09:07:41.127Z,25.21
2018-07-16T09:10:11.329Z,25.38
2018-07-16T09:12:40.841Z,25.47
2018-07-16T09:15:10.632Z,25.02
2018-07-16T09:17:40.098Z,25.04
2018-07-16T09:20:10.123Z,25.07
2018-07-16T09:22:40.827Z,25.08
2018-07-16T09:25:11.011Z,25.33
2018-07-16T09:27:40.973Z,25.34
2018-07-16T09:30:11.015Z,25.27
2018-07-16T09:32:40.981Z,25.41
2018-07-16T09:35:11.187Z,25.85
2018-07-16T09:37:40.982Z,26.12
2018-07-16T09:40:10.938Z,25.89
2018-07-16T09:42:40.572Z,25.94
2018-07-16T09:45:10.258Z,25.69
2018-07-16T09:47:39.848Z,25.72
2018-07-16T09:50:09.956Z,25.77
2018-07-16T09:52:39.678Z,26.09
2018-07-16T09:55:10.148Z,26.01
2018-07-16T09:57:40.693Z,26.05
2018-07-16T10:00:10.661Z,26.11
2018-07-16T10:02:40.679Z,26.04
2018-07-16T10:05:10.757Z,26.24
2018-07-16T10:07:41.031Z,26.17
2018-07-16T10:10:10.983Z,26.49
2018-07-16T10:12:41.350Z,26.63
2018-07-16T10:15:12.079Z,27.20
2018-07-16T10:17:42.808Z,27.19
2018-07-16T10:20:13.384Z,27.06
2018-07-16T10:22:43.249Z,27.11
2018-07-16T10:25:12.831Z,26.96
2018-07-16T10:27:43.590Z,27.70
2018-07-16T10:30:13.574Z,27.69
2018-07-16T10:32:43.973Z,27.36
2018-07-16T10:35:13.837Z,27.86
2018-07-16T10:37:43.350Z,27.76
2018-07-16T10:40:13.135Z,27.92
2018-07-16T10:42:42.634Z,27.85
2018-07-16T10:45:12.552Z,28.37
2018-07-16T10:47:42.549Z,28.52
2018-07-16T10:50:12.640Z,28.07
2018-07-16T10:52:42.159Z,27.98
2018-07-16T10:55:12.042Z,27.93
2018-07-16T10:57:41.722Z,28.13
2018-07-16T11:00:12.343Z,27.44
2018-07-16T11:02:42.336Z,27.99
2018-07-16T11:05:12.279Z,27.90
2018-07-16T11:07:42.115Z,28.33
2018-07-16T11:10:12.241Z,28.58
2018-07-16T11:12:41.740Z,28.36
2018-07-16T11:15:11.502Z,28.56
2018-07-16T11:17:41.212Z,29.36
2018-07-16T11:20:12.098Z,29.52
2018-07-16T11:25:11.394Z,28.72
2018-07-16T11:27:41.654Z,29.67
2018-07-16T11:30:11.318Z,29.48
2018-07-16T11:32:41.250Z,29.53
2018-07-16T11:35:11.251Z,28.84
2018-07-16T11:37:40.890Z,28.62
2018-07-16T11:40:10.896Z,29.26
2018-07-16T11:42:40.703Z,28.82
2018-07-16T11:45:10.522Z,29.21
2018-07-16T11:47:40.214Z,28.93
2018-07-16T11:50:09.913Z,29.18
2018-07-16T11:52:39.597Z,28.92
2018-07-16T11:55:09.411Z,29.46
2018-07-16T11:57:39.153Z,29.75
2018-07-16T12:00:08.837Z,29.76
2018-07-16T12:02:38.962Z,29.56
2018-07-16T12:05:08.681Z,30.38
2018-07-16T12:07:38.629Z,30.08
2018-07-16T12:10:08.466Z,30.01
2018-07-16T12:12:38.552Z,30.59
2018-07-16T12:15:10.585Z,30.43
2018-07-16T12:17:40.867Z,30.74
2018-07-16T12:20:10.733Z,30.01
2018-07-16T12:22:40.562Z,29.15
2018-07-16T12:25:10.275Z,29.64
2018-07-16T12:27:39.917Z,29.54
2018-07-16T12:30:09.877Z,30.31
2018-07-16T12:32:39.547Z,29.90
2018-07-16T12:35:09.115Z,30.10
2018-07-16T12:37:38.805Z,30.52
2018-07-16T12:40:08.526Z,30.52
2018-07-16T12:42:38.822Z,30.40
2018-07-16T12:45:09.471Z,30.71
2018-07-16T12:47:39.796Z,30.57
2018-07-16T12:50:09.726Z,30.89
2018-07-16T12:52:40.195Z,31.61
2018-07-16T12:55:13.669Z,31.11
2018-07-16T12:57:44.136Z,30.90
2018-07-16T13:00:14.964Z,31.03
2018-07-16T13:02:44.744Z,31.04
2018-07-16T13:05:14.273Z,31.70
2018-07-16T13:07:43.820Z,32.18
2018-07-16T13:10:13.391Z,31.41
2018-07-16T13:12:43.189Z,31.68
2018-07-16T13:15:12.936Z,31.76
2018-07-16T13:17:42.921Z,31.84
2018-07-16T13:20:12.646Z,31.35
2018-07-16T13:22:42.538Z,31.18
2018-07-16T13:25:12.503Z,31.94
2018-07-16T13:27:42.343Z,32.24
2018-07-16T13:30:11.848Z,30.66
2018-07-16T13:32:41.785Z,31.35
2018-07-16T13:35:11.354Z,31.75
2018-07-16T13:37:40.917Z,32.52
2018-07-16T13:40:12.055Z,32.75
2018-07-16T13:42:41.955Z,31.87
2018-07-16T13:45:12.318Z,32.49
2018-07-16T13:47:42.070Z,32.80
2018-07-16T13:50:11.911Z,31.98
2018-07-16T13:52:41.642Z,31.77
2018-07-16T13:55:11.646Z,32.03
2018-07-16T13:57:41.519Z,31.80
2018-07-16T14:00:11.106Z,32.02
2018-07-16T14:02:40.631Z,32.86
2018-07-16T14:05:10.382Z,32.86
2018-07-16T14:07:39.942Z,33.03
2018-07-16T14:10:09.764Z,33.14
2018-07-16T14:12:39.746Z,32.61
2018-07-16T14:15:09.379Z,32.33
2018-07-16T14:17:39.261Z,33.11
2018-07-16T14:20:08.816Z,32.88
2018-07-16T14:22:38.559Z,32.11
2018-07-16T14:25:08.623Z,32.14
2018-07-16T14:27:38.488Z,32.76
2018-07-16T14:30:08.270Z,32.37
2018-07-16T14:32:37.891Z,33.21
2018-07-16T14:35:07.501Z,32.83
2018-07-16T14:37:37.090Z,32.71
2018-07-16T14:40:07.020Z,32.54
2018-07-16T14:42:36.669Z,32.87
2018-07-16T14:45:06.755Z,33.42
2018-07-16T14:47:36.513Z,33.60
2018-07-16T14:50:06.481Z,33.28
2018-07-16T14:52:36.340Z,32.72
2018-07-16T14:55:06.215Z,32.58
2018-07-16T14:57:36.198Z,32.67
2018-07-16T15:00:06.292Z,32.54
2018-07-16T15:02:35.863Z,33.37
2018-07-16T15:05:05.600Z,33.16
2018-07-16T15:07:35.065Z,33.51
2018-07-16T15:10:04.929Z,33.62
2018-07-16T15:12:34.702Z,33.48
2018-07-16T15:15:04.383Z,33.19
2018-07-16T15:17:34.179Z,33.22
2018-07-16T15:20:04.180Z,32.77
2018-07-16T15:22:34.188Z,33.11
2018-07-16T15:25:04.131Z,33.51
2018-07-16T15:27:33.826Z,32.55
2018-07-16T15:30:03.420Z,33.87
2018-07-16T15:32:32.917Z,33.87
2018-07-16T15:35:02.541Z,33.13
2018-07-16T15:37:32.795Z,34.11
2018-07-16T15:40:02.835Z,34.18
2018-07-16T15:42:33.007Z,33.95
2018-07-16T15:45:03.061Z,33.19
2018-07-16T15:47:33.039Z,32.61
2018-07-16T15:50:03.124Z,31.65
2018-07-16T15:52:32.988Z,32.04
2018-07-16T15:55:02.549Z,31.50
2018-07-16T15:57:32.351Z,31.59
2018-07-16T16:00:02.066Z,31.57
2018-07-16T16:02:31.617Z,31.51
2018-07-16T16:05:01.180Z,31.92
2018-07-16T16:07:32.373Z,32.11
2018-07-16T16:10:03.486Z,32.13
2018-07-16T16:12:33.106Z,31.25
2018-07-16T16:15:02.998Z,31.15
2018-07-16T16:17:33.190Z,30.71
2018-07-16T16:20:02.803Z,30.51
2018-07-16T16:22:32.588Z,30.03
2018-07-16T16:25:02.519Z,30.16
2018-07-16T16:27:32.203Z,29.58
2018-07-16T16:30:01.747Z,29.60
2018-07-16T16:32:31.332Z,29.26
2018-07-16T16:35:01.003Z,29.18
2018-07-16T16:37:30.718Z,28.54
2018-07-16T16:40:00.712Z,28.14
2018-07-16T16:42:30.658Z,28.08
2018-07-16T16:45:00.388Z,27.88
2018-07-16T16:47:30.052Z,27.72
2018-07-16T16:49:59.869Z,27.62
2018-07-16T16:52:29.531Z,27.91
2018-07-16T16:54:59.286Z,27.66
2018-07-16T16:57:28.942Z,27.62
2018-07-16T16:59:58.783Z,27.04
2018-07-16T17:02:28.487Z,27.50
2018-07-16T17:04:58.394Z,27.28
2018-07-16T17:07:28.261Z,26.93
2018-07-16T17:09:58.254Z,26.80
2018-07-16T17:12:28.042Z,25.87
2018-07-16T17:14:58.047Z,26.56
2018-07-16T17:17:28.326Z,26.31
2018-07-16T17:19:58.486Z,26.20
2018-07-16T17:22:28.798Z,26.23
2018-07-16T17:24:58.822Z,26.11
2018-07-16T17:27:28.538Z,26.11
2018-07-16T17:29:58.215Z,26.00
2018-07-16T17:32:27.789Z,25.84
2018-07-16T17:34:57.715Z,25.82
2018-07-16T17:37:27.368Z,25.71
2018-07-16T17:39:57.173Z,25.92
2018-07-16T17:42:26.834Z,25.74
2018-07-16T17:44:56.709Z,25.53
2018-07-16T17:47:26.456Z,25.35
2018-07-16T17:49:56.497Z,25.18
2018-07-16T17:52:26.239Z,25.21
2018-07-16T17:54:55.841Z,25.31
2018-07-16T17:57:25.720Z,25.15
2018-07-16T17:59:55.319Z,25.04
2018-07-16T18:02:25.287Z,24.78
2018-07-16T18:04:55.142Z,24.66
2018-07-16T18:07:24.972Z,24.48
2018-07-16T18:09:54.719Z,24.45
2018-07-16T18:12:24.778Z,24.53
2018-07-16T18:14:54.456Z,24.52
2018-07-16T18:17:24.134Z,24.39
2018-07-16T18:19:53.676Z,24.36
2018-07-16T18:22:23.506Z,24.30
2018-07-16T18:24:53.309Z,24.32
2018-07-16T18:27:22.980Z,24.39
2018-07-16T18:29:52.459Z,24.31
2018-07-16T18:32:22.091Z,24.35
2018-07-16T18:34:52.166Z,24.23
2018-07-16T18:37:22.054Z,24.40
2018-07-16T18:39:51.606Z,24.50
2018-07-16T18:42:21.659Z,24.54
2018-07-16T18:44:51.675Z,24.22
2018-07-16T18:47:21.823Z,24.19
2018-07-16T18:49:51.505Z,24.24
2018-07-16T18:52:21.231Z,24.13
2018-07-16T18:54:50.853Z,24.28
2018-07-16T18:57:20.493Z,24.55
2018-07-16T18:59:50.047Z,24.37
2018-07-16T19:02:19.678Z,24.41
2018-07-16T19:04:49.391Z,24.33
2018-07-16T19:07:22.036Z,24.34
2018-07-16T19:09:52.263Z,24.25
2018-07-16T19:12:21.986Z,24.23
2018-07-16T19:14:51.918Z,24.21
2018-07-16T19:17:21.779Z,24.10
2018-07-16T19:19:51.552Z,24.06
2018-07-16T19:22:21.227Z,24.21
2018-07-16T19:24:51.006Z,24.12
2018-07-16T19:27:20.557Z,24.22
2018-07-16T19:29:51.175Z,24.13
2018-07-16T19:32:20.745Z,23.99
2018-07-16T19:34:50.690Z,24.00
2018-07-16T19:37:20.360Z,23.93
2018-07-16T19:39:50.048Z,23.94
2018-07-16T19:42:19.821Z,23.94
2018-07-16T19:44:49.448Z,23.91
2018-07-16T19:47:19.014Z,23.84
2018-07-16T19:49:48.791Z,23.78
2018-07-16T19:52:18.689Z,23.88
2018-07-16T19:54:48.318Z,23.95
2018-07-16T19:57:17.899Z,23.77
2018-07-16T19:59:47.447Z,24.01
2018-07-16T20:02:17.499Z,24.11
2018-07-16T20:04:47.191Z,24.22
2018-07-16T20:07:16.923Z,24.33
2018-07-16T20:09:47.361Z,24.41
2018-07-16T20:12:29.499Z,24.45
2018-07-16T20:14:59.946Z,24.43
2018-07-16T20:17:29.775Z,24.46
2018-07-16T20:20:00.094Z,24.46
2018-07-16T20:22:30.219Z,24.44
2018-07-16T20:25:00.085Z,24.10
2018-07-16T20:27:29.638Z,24.25
2018-07-16T20:29:59.303Z,24.43
2018-07-16T20:32:29.348Z,24.37
2018-07-16T20:34:59.123Z,24.32
2018-07-16T20:37:29.070Z,24.29
2018-07-16T20:39:58.883Z,24.03
2018-07-16T20:42:28.941Z,23.88
2018-07-16T20:44:58.715Z,23.82
2018-07-16T20:47:28.473Z,23.35
2018-07-16T20:49:58.367Z,23.04
2018-07-16T20:52:27.861Z,23.14
2018-07-16T20:54:57.618Z,23.23
2018-07-16T20:57:27.106Z,22.93
2018-07-16T20:59:56.607Z,22.95
2018-07-16T21:02:26.474Z,22.65
2018-07-16T21:04:56.248Z,22.60
2018-07-16T21:07:25.919Z,22.70
2018-07-16T21:09:55.592Z,22.55
2018-07-16T21:12:25.570Z,22.53
2018-07-16T21:14:55.353Z,22.41
2018-07-16T21:17:25.279Z,22.47
2018-07-16T21:19:55.000Z,22.45
2018-07-16T21:22:24.822Z,22.78
2018-07-16T21:24:54.491Z,22.26
2018-07-16T21:27:24.019Z,22.36
2018-07-16T21:29:53.787Z,22.56
2018-07-16T21:32:23.921Z,22.22
2018-07-16T21:34:53.795Z,22.35
2018-07-16T21:37:23.699Z,22.12
2018-07-16T21:39:53.522Z,22.50
2018-07-16T21:42:23.330Z,22.22
2018-07-16T21:44:52.890Z,22.42
2018-07-16T21:47:22.691Z,22.41
2018-07-16T21:49:52.357Z,22.27
2018-07-16T21:52:21.995Z,22.28
2018-07-16T21:54:51.643Z,22.22
2018-07-16T21:57:21.275Z,22.13
2018-07-16T21:59:50.811Z,22.25
2018-07-16T22:02:20.907Z,22.36
2018-07-16T22:04:50.663Z,22.14
2018-07-16T22:07:20.746Z,21.92
2018-07-16T22:09:50.322Z,21.71
2018-07-16T22:12:19.968Z,21.90
2018-07-16T22:14:49.521Z,21.95
2018-07-16T22:17:19.249Z,21.99
2018-07-16T22:19:48.860Z,22.13
2018-07-16T22:22:18.588Z,22.14
2018-07-16T22:24:48.107Z,22.09
2018-07-16T22:27:17.751Z,22.01
2018-07-16T22:29:47.393Z,21.87
2018-07-16T22:32:16.914Z,21.84
2018-07-16T22:34:46.678Z,21.68
2018-07-16T22:37:16.552Z,21.57
2018-07-16T22:39:46.161Z,21.53
2018-07-16T22:42:15.882Z,21.57
2018-07-16T22:44:45.654Z,21.29
2018-07-16T22:47:15.452Z,21.12
2018-07-16T22:49:45.314Z,21.15
2018-07-16T22:52:15.286Z,20.94
2018-07-16T22:54:44.818Z,21.02
2018-07-16T22:57:14.389Z,21.04
2018-07-16T22:59:44.018Z,21.06
2018-07-16T23:02:13.996Z,21.13
2018-07-16T23:04:43.586Z,20.89
2018-07-16T23:07:13.347Z,20.86
2018-07-16T23:09:43.143Z,20.84
2018-07-16T23:12:12.999Z,21.10
2018-07-16T23:14:43.006Z,21.17
2018-07-16T23:17:12.810Z,20.79
2018-07-16T23:19:42.638Z,21.00
2018-07-16T23:22:12.292Z,21.05
2018-07-16T23:24:41.953Z,21.19
2018-07-16T23:27:11.523Z,21.20
2018-07-16T23:29:41.170Z,21.35
2018-07-16T23:32:11.031Z,21.25
2018-07-16T23:34:40.834Z,21.15
2018-07-16T23:37:10.680Z,21.20
2018-07-16T23:39:40.373Z,21.29
2018-07-16T23:42:10.043Z,21.30
2018-07-16T23:44:39.878Z,21.36
2018-07-16T23:47:09.424Z,21.39
2018-07-16T23:49:39.138Z,21.46
2018-07-16T23:52:08.760Z,21.41
2018-07-16T23:54:38.522Z,21.45
2018-07-16T23:57:08.139Z,21.50
2018-07-16T23:59:37.805Z,21.47
